createdAt,value
2016-11-10T00:00:13.510Z,3.96
2016-11-10T00:01:13.381Z,3.93
2016-11-10T00:02:13.434Z,3.97
2016-11-10T00:03:13.814Z,3.93
2016-11-10T00:04:13.531Z,3.9
2016-11-10T00:05:13.437Z,3.9
2016-11-10T00:06:13.536Z,4
2016-11-10T00:07:13.535Z,3.85
2016-11-10T00:08:13.479Z,4
2016-11-10T00:09:13.452Z,4.03
2016-11-10T00:10:13.455Z,3.97
2016-11-10T00:11:13.544Z,3.93
2016-11-10T00:12:13.542Z,3.99
2016-11-10T00:13:13.582Z,3.93
2016-11-10T00:14:13.550Z,3.93
2016-11-10T00:15:13.563Z,3.9
2016-11-10T00:16:13.495Z,4.02
2016-11-10T00:17:13.483Z,4.02
2016-11-10T00:18:13.494Z,3.97
2016-11-10T00:19:13.483Z,3.99
2016-11-10T00:20:13.483Z,4.03
2016-11-10T00:21:13.495Z,4
2016-11-10T00:22:13.592Z,3.99
2016-11-10T00:23:13.528Z,4.02
2016-11-10T00:24:13.443Z,3.92
2016-11-10T00:25:13.425Z,4
2016-11-10T00:26:13.497Z,3.97
2016-11-10T00:27:13.440Z,4.03
2016-11-10T00:28:13.587Z,4.07
2016-11-10T00:29:13.671Z,3.93
2016-11-10T00:30:13.597Z,3.97
2016-11-10T00:31:13.600Z,3.97
2016-11-10T00:32:13.628Z,4
2016-11-10T00:33:13.524Z,3.96
2016-11-10T00:34:13.610Z,3.97
2016-11-10T00:35:13.536Z,3.97
2016-11-10T00:36:13.536Z,4.03
2016-11-10T00:37:13.640Z,4.04
2016-11-10T00:38:13.622Z,4.04
2016-11-10T00:39:13.543Z,3.96
2016-11-10T00:40:13.472Z,3.99
2016-11-10T00:41:13.541Z,4.02
2016-11-10T00:42:13.862Z,3.96
2016-11-10T00:43:13.553Z,3.99
2016-11-10T00:44:13.568Z,4
2016-11-10T00:45:13.732Z,3.96
2016-11-10T00:46:13.553Z,3.97
2016-11-10T00:47:13.566Z,3.94
2016-11-10T00:48:13.645Z,3.96
2016-11-10T00:49:13.527Z,3.94
2016-11-10T00:50:13.472Z,3.9
2016-11-10T00:51:13.632Z,4.02
2016-11-10T00:52:13.636Z,4.02
2016-11-10T00:53:13.662Z,3.97
2016-11-10T00:54:13.605Z,4.02
2016-11-10T00:55:13.661Z,4.07
2016-11-10T00:56:13.524Z,4.07
2016-11-10T00:57:13.597Z,3.99
2016-11-10T00:58:13.591Z,3.96
2016-11-10T00:59:14.155Z,3.94
2016-11-10T01:00:13.728Z,3.97
2016-11-10T01:01:13.774Z,4
2016-11-10T01:02:13.520Z,3.96
2016-11-10T01:03:13.538Z,3.92
2016-11-10T01:04:13.688Z,3.9
2016-11-10T01:05:13.524Z,3.96
2016-11-10T01:06:13.631Z,3.93
2016-11-10T01:07:13.620Z,3.94
2016-11-10T01:08:13.541Z,3.92
2016-11-10T01:09:13.612Z,3.85
2016-11-10T01:10:13.690Z,4.03
2016-11-10T01:11:13.629Z,4
2016-11-10T01:12:13.647Z,3.96
2016-11-10T01:13:13.637Z,3.93
2016-11-10T01:14:13.627Z,3.9
2016-11-10T01:15:13.622Z,3.9
2016-11-10T01:16:13.641Z,3.9
2016-11-10T01:17:13.748Z,4
2016-11-10T01:18:13.563Z,4
2016-11-10T01:19:13.590Z,3.89
2016-11-10T01:20:13.669Z,3.93
2016-11-10T01:21:13.656Z,3.92
2016-11-10T01:22:13.569Z,3.86
2016-11-10T01:23:13.692Z,3.81
2016-11-10T01:24:13.673Z,3.89
2016-11-10T01:25:13.608Z,3.85
2016-11-10T01:26:13.676Z,3.93
2016-11-10T01:27:13.596Z,3.85
2016-11-10T01:28:13.772Z,3.94
2016-11-10T01:29:13.781Z,3.79
2016-11-10T01:30:13.601Z,3.86
2016-11-10T01:31:13.677Z,3.9
2016-11-10T01:32:13.598Z,3.93
2016-11-10T01:33:13.797Z,3.82
2016-11-10T01:34:13.697Z,3.81
2016-11-10T01:35:13.729Z,3.89
2016-11-10T01:36:13.682Z,3.89
2016-11-10T01:37:13.626Z,3.96
2016-11-10T01:38:13.632Z,3.93
2016-11-10T01:39:13.791Z,3.79
2016-11-10T01:40:13.704Z,3.89
2016-11-10T01:41:13.723Z,3.82
2016-11-10T01:42:13.635Z,3.9
2016-11-10T01:43:13.799Z,3.89
2016-11-10T01:44:13.651Z,3.89
2016-11-10T01:45:13.715Z,3.85
2016-11-10T01:46:13.727Z,3.92
2016-11-10T01:47:13.794Z,3.82
2016-11-10T01:48:13.642Z,3.79
2016-11-10T01:49:13.769Z,3.85
2016-11-10T01:50:13.641Z,3.89
2016-11-10T01:51:13.668Z,3.92
2016-11-10T01:52:13.770Z,3.93
2016-11-10T01:53:13.833Z,3.9
2016-11-10T01:54:13.647Z,3.85
2016-11-10T01:55:13.743Z,3.82
2016-11-10T01:56:13.663Z,3.81
2016-11-10T01:57:13.669Z,3.85
2016-11-10T01:58:13.747Z,3.81
2016-11-10T01:59:13.678Z,3.82
2016-11-10T02:00:13.764Z,3.82
2016-11-10T02:01:13.767Z,3.85
2016-11-10T02:02:13.777Z,3.85
2016-11-10T02:03:13.853Z,3.92
2016-11-10T02:04:13.846Z,3.79
2016-11-10T02:05:13.801Z,4.03
2016-11-10T02:06:13.710Z,3.93
2016-11-10T02:07:13.778Z,3.97
2016-11-10T02:08:13.822Z,3.85
2016-11-10T02:09:13.860Z,3.81
2016-11-10T02:10:13.873Z,3.82
2016-11-10T02:11:13.728Z,3.9
2016-11-10T02:12:13.813Z,3.94
2016-11-10T02:13:13.788Z,3.86
2016-11-10T02:14:13.810Z,3.92
2016-11-10T02:15:13.701Z,3.93
2016-11-10T02:16:13.828Z,3.85
2016-11-10T02:17:13.811Z,3.9
2016-11-10T02:18:13.824Z,3.85
2016-11-10T02:19:13.744Z,3.9
2016-11-10T02:20:13.902Z,3.94
2016-11-10T02:21:14.001Z,3.93
2016-11-10T02:22:13.829Z,3.93
2016-11-10T02:23:13.912Z,3.79
2016-11-10T02:24:13.833Z,3.9
2016-11-10T02:25:13.755Z,3.84
2016-11-10T02:26:13.836Z,3.93
2016-11-10T02:27:13.862Z,3.89
2016-11-10T02:28:13.827Z,3.79
2016-11-10T02:29:13.753Z,3.93
2016-11-10T02:30:13.831Z,3.85
2016-11-10T02:31:13.840Z,3.86
2016-11-10T02:32:13.971Z,3.89
2016-11-10T02:33:13.984Z,3.86
2016-11-10T02:34:13.839Z,3.9
2016-11-10T02:35:13.764Z,3.84
2016-11-10T02:36:13.841Z,3.85
2016-11-10T02:37:13.994Z,3.84
2016-11-10T02:38:13.938Z,3.86
2016-11-10T02:39:13.949Z,3.86
2016-11-10T02:40:13.949Z,3.9
2016-11-10T02:41:13.793Z,3.86
2016-11-10T02:42:13.811Z,3.96
2016-11-10T02:43:13.881Z,3.82
2016-11-10T02:44:13.972Z,3.96
2016-11-10T02:45:13.878Z,3.94
2016-11-10T02:46:13.829Z,3.81
2016-11-10T02:47:13.903Z,3.84
2016-11-10T02:48:13.815Z,3.93
2016-11-10T02:49:13.974Z,3.92
2016-11-10T02:50:13.982Z,3.85
2016-11-10T02:51:13.899Z,3.93
2016-11-10T02:52:13.981Z,3.85
2016-11-10T02:53:14.087Z,3.9
2016-11-10T02:54:13.908Z,3.9
2016-11-10T02:55:13.977Z,3.94
2016-11-10T02:56:13.977Z,3.89
2016-11-10T02:57:13.938Z,3.92
2016-11-10T02:58:13.836Z,3.82
2016-11-10T02:59:14.000Z,3.81
2016-11-10T03:00:14.002Z,3.86
2016-11-10T03:01:13.937Z,3.9
2016-11-10T03:02:13.932Z,3.86
2016-11-10T03:03:13.937Z,3.9
2016-11-10T03:04:13.960Z,3.92
2016-11-10T03:05:14.017Z,3.9
2016-11-10T03:06:13.953Z,3.9
2016-11-10T03:07:13.971Z,3.96
2016-11-10T03:08:14.020Z,3.89
2016-11-10T03:09:14.123Z,3.85
2016-11-10T03:10:13.859Z,3.78
2016-11-10T03:11:13.858Z,3.85
2016-11-10T03:12:13.955Z,3.85
2016-11-10T03:13:13.964Z,3.9
2016-11-10T03:14:14.074Z,3.86
2016-11-10T03:15:14.047Z,3.85
2016-11-10T03:16:13.956Z,3.86
2016-11-10T03:17:13.963Z,3.81
2016-11-10T03:18:13.975Z,3.85
2016-11-10T03:19:14.055Z,3.82
2016-11-10T03:20:13.982Z,3.85
2016-11-10T03:21:13.971Z,3.85
2016-11-10T03:22:13.986Z,3.82
2016-11-10T03:23:13.983Z,3.9
2016-11-10T03:24:13.940Z,3.9
2016-11-10T03:25:14.197Z,3.84
2016-11-10T03:26:13.983Z,3.85
2016-11-10T03:27:14.021Z,3.94
2016-11-10T03:28:14.083Z,3.9
2016-11-10T03:29:13.922Z,3.85
2016-11-10T03:30:14.024Z,3.89
2016-11-10T03:31:14.016Z,3.94
2016-11-10T03:32:14.037Z,3.94
2016-11-10T03:33:13.940Z,3.85
2016-11-10T03:34:14.060Z,3.96
2016-11-10T03:35:14.054Z,3.94
2016-11-10T03:36:14.037Z,3.96
2016-11-10T03:37:14.011Z,3.99
2016-11-10T03:38:14.022Z,3.92
2016-11-10T03:39:14.045Z,4
2016-11-10T03:40:14.037Z,3.96
2016-11-10T03:41:14.234Z,3.86
2016-11-10T03:42:13.946Z,3.97
2016-11-10T03:43:13.960Z,3.97
2016-11-10T03:44:14.038Z,3.96
2016-11-10T03:45:14.127Z,3.97
2016-11-10T03:46:14.075Z,3.97
2016-11-10T03:47:13.974Z,4
2016-11-10T03:48:13.996Z,3.86
2016-11-10T03:49:13.966Z,3.94
2016-11-10T03:50:13.976Z,3.97
2016-11-10T03:51:14.132Z,3.9
2016-11-10T03:52:14.094Z,3.9
2016-11-10T03:53:14.155Z,3.94
2016-11-10T03:54:14.139Z,3.96
2016-11-10T03:55:14.065Z,3.99
2016-11-10T03:56:14.084Z,4.07
2016-11-10T03:57:14.366Z,3.97
2016-11-10T03:58:14.184Z,4
2016-11-10T03:59:14.182Z,3.96
2016-11-10T04:00:14.172Z,3.96
2016-11-10T04:01:14.084Z,3.93
2016-11-10T04:02:14.099Z,3.89
2016-11-10T04:03:14.096Z,3.9
2016-11-10T04:04:14.020Z,3.89
2016-11-10T04:05:14.082Z,3.85
2016-11-10T04:06:14.008Z,3.93
2016-11-10T04:07:14.033Z,3.92
2016-11-10T04:08:14.204Z,3.9
2016-11-10T04:09:14.055Z,3.89
2016-11-10T04:10:14.050Z,3.85
2016-11-10T04:11:14.146Z,3.92
2016-11-10T04:12:14.195Z,3.9
2016-11-10T04:13:14.253Z,3.94
2016-11-10T04:14:14.071Z,3.99
2016-11-10T04:15:14.209Z,3.93
2016-11-10T04:16:14.237Z,3.92
2016-11-10T04:17:14.149Z,3.96
2016-11-10T04:18:14.077Z,3.85
2016-11-10T04:19:14.226Z,4.02
2016-11-10T04:20:14.139Z,3.94
2016-11-10T04:21:14.055Z,3.86
2016-11-10T04:22:14.170Z,3.79
2016-11-10T04:23:14.168Z,3.94
2016-11-10T04:24:14.122Z,3.92
2016-11-10T04:25:14.096Z,3.86
2016-11-10T04:26:14.241Z,3.92
2016-11-10T04:27:14.787Z,3.97
2016-11-10T04:28:14.248Z,3.92
2016-11-10T04:29:14.367Z,3.89
2016-11-10T04:30:14.162Z,3.94
2016-11-10T04:31:14.183Z,4
2016-11-10T04:32:14.102Z,3.97
2016-11-10T04:33:14.269Z,4.04
2016-11-10T04:34:14.265Z,4.03
2016-11-10T04:35:14.190Z,4.03
2016-11-10T04:36:14.198Z,3.94
2016-11-10T04:37:14.186Z,3.94
2016-11-10T04:38:14.272Z,3.84
2016-11-10T04:39:14.289Z,3.97
2016-11-10T04:40:14.304Z,3.97
2016-11-10T04:41:14.205Z,4.02
2016-11-10T04:42:14.147Z,3.96
2016-11-10T04:43:14.209Z,3.96
2016-11-10T04:44:14.124Z,4
2016-11-10T04:45:14.291Z,3.97
2016-11-10T04:46:14.228Z,3.9
2016-11-10T04:47:14.281Z,3.93
2016-11-10T04:48:14.287Z,3.96
2016-11-10T04:49:14.157Z,4.03
2016-11-10T04:50:14.155Z,3.97
2016-11-10T04:51:14.169Z,4.02
2016-11-10T04:52:14.165Z,4.07
2016-11-10T04:53:14.176Z,4.04
2016-11-10T04:54:14.304Z,4
2016-11-10T04:55:14.324Z,3.97
2016-11-10T04:56:14.331Z,4.07
2016-11-10T04:57:14.229Z,4.02
2016-11-10T04:58:14.249Z,3.97
2016-11-10T04:59:14.153Z,4.1
2016-11-10T05:00:14.170Z,4.08
2016-11-10T05:01:14.546Z,4.12
2016-11-10T05:02:14.191Z,4.1
2016-11-10T05:03:14.286Z,4.04
2016-11-10T05:04:14.195Z,4.11
2016-11-10T05:05:14.342Z,4.08
2016-11-10T05:06:14.279Z,4.08
2016-11-10T05:07:14.351Z,4.07
2016-11-10T05:08:14.282Z,4
2016-11-10T05:09:14.269Z,3.96
2016-11-10T05:10:14.370Z,3.99
2016-11-10T05:11:14.278Z,4.04
2016-11-10T05:12:14.212Z,4.08
2016-11-10T05:13:14.278Z,4.18
2016-11-10T05:14:14.373Z,4.08
2016-11-10T05:15:14.349Z,4.07
2016-11-10T05:16:14.384Z,4.11
2016-11-10T05:17:14.505Z,4.08
2016-11-10T05:18:14.222Z,4.04
2016-11-10T05:19:14.292Z,4.07
2016-11-10T05:20:14.298Z,4.07
2016-11-10T05:21:14.240Z,4.03
2016-11-10T05:22:14.334Z,4.12
2016-11-10T05:23:14.236Z,4.15
2016-11-10T05:24:14.407Z,4.04
2016-11-10T05:25:14.236Z,4.14
2016-11-10T05:26:14.258Z,4.17
2016-11-10T05:27:14.324Z,4.15
2016-11-10T05:28:14.270Z,4.02
2016-11-10T05:29:14.258Z,4.1
2016-11-10T05:30:14.327Z,4.08
2016-11-10T05:31:14.332Z,4.11
2016-11-10T05:32:14.329Z,4.1
2016-11-10T05:33:14.377Z,4.1
2016-11-10T05:34:14.258Z,4.17
2016-11-10T05:35:14.278Z,4.12
2016-11-10T05:36:14.326Z,4.1
2016-11-10T05:37:14.353Z,4.08
2016-11-10T05:38:14.486Z,4.1
2016-11-10T05:39:14.273Z,4.02
2016-11-10T05:40:14.366Z,4.07
2016-11-10T05:41:14.366Z,4.04
2016-11-10T05:42:14.346Z,4.11
2016-11-10T05:43:14.307Z,4.07
2016-11-10T05:44:14.395Z,4.15
2016-11-10T05:45:14.380Z,4.1
2016-11-10T05:46:14.314Z,4.03
2016-11-10T05:47:14.370Z,4.07
2016-11-10T05:48:14.381Z,4.08
2016-11-10T05:49:14.495Z,4.12
2016-11-10T05:50:14.401Z,4.11
2016-11-10T05:51:14.391Z,4.03
2016-11-10T05:52:14.389Z,4.03
2016-11-10T05:53:14.399Z,3.99
2016-11-10T05:54:14.330Z,4.08
2016-11-10T05:55:14.506Z,4.17
2016-11-10T05:56:14.504Z,4.11
2016-11-10T05:57:14.414Z,4.07
2016-11-10T05:58:14.406Z,4.03
2016-11-10T05:59:14.333Z,4.11
2016-11-10T06:00:14.366Z,4.12
2016-11-10T06:01:14.372Z,4.14
2016-11-10T06:02:14.436Z,4.07
2016-11-10T06:03:14.492Z,4.08
2016-11-10T06:04:14.530Z,4.1
2016-11-10T06:05:14.740Z,4.17
2016-11-10T06:06:14.415Z,4.11
2016-11-10T06:07:14.356Z,4.08
2016-11-10T06:08:14.432Z,4.08
2016-11-10T06:09:14.520Z,3.99
2016-11-10T06:10:14.518Z,3.97
2016-11-10T06:11:14.455Z,3.96
2016-11-10T06:12:14.376Z,4.08
2016-11-10T06:13:14.458Z,4.04
2016-11-10T06:14:14.482Z,4.07
2016-11-10T06:15:14.386Z,4.15
2016-11-10T06:16:14.477Z,4.1
2016-11-10T06:17:14.471Z,4.15
2016-11-10T06:18:14.492Z,4.08
2016-11-10T06:19:14.498Z,4.15
2016-11-10T06:20:14.464Z,4.15
2016-11-10T06:21:14.594Z,4.18
2016-11-10T06:22:14.405Z,4.14
2016-11-10T06:23:14.481Z,4.11
2016-11-10T06:24:14.482Z,4.11
2016-11-10T06:25:14.485Z,4.12
2016-11-10T06:26:14.483Z,4.11
2016-11-10T06:27:14.506Z,4.15
2016-11-10T06:28:14.573Z,4.15
2016-11-10T06:29:14.514Z,4.15
2016-11-10T06:30:14.605Z,4.08
2016-11-10T06:31:14.583Z,4
2016-11-10T06:32:14.598Z,4.08
2016-11-10T06:33:14.544Z,4.12
2016-11-10T06:34:14.509Z,4.2
2016-11-10T06:35:14.581Z,4.14
2016-11-10T06:36:14.548Z,4.21
2016-11-10T06:37:14.631Z,4.28
2016-11-10T06:38:14.530Z,4.14
2016-11-10T06:39:14.522Z,4.21
2016-11-10T06:40:14.522Z,4.22
2016-11-10T06:41:14.455Z,4.18
2016-11-10T06:42:14.570Z,4.14
2016-11-10T06:43:14.530Z,4.26
2016-11-10T06:44:14.492Z,4.2
2016-11-10T06:45:14.618Z,4.18
2016-11-10T06:46:14.563Z,4.21
2016-11-10T06:47:14.449Z,4.22
2016-11-10T06:48:14.580Z,4.18
2016-11-10T06:49:14.634Z,4.22
2016-11-10T06:50:14.615Z,4.17
2016-11-10T06:51:14.539Z,4.15
2016-11-10T06:52:14.520Z,4.24
2016-11-10T06:53:14.612Z,4.2
2016-11-10T06:54:14.653Z,4.21
2016-11-10T06:55:14.495Z,4.22
2016-11-10T06:56:14.548Z,4.28
2016-11-10T06:57:14.616Z,4.21
2016-11-10T06:58:14.542Z,4.29
2016-11-10T06:59:14.643Z,4.3
2016-11-10T07:00:14.619Z,4.3
2016-11-10T07:01:14.508Z,4.24
2016-11-10T07:02:14.674Z,4.22
2016-11-10T07:03:14.612Z,4.22
2016-11-10T07:04:14.523Z,4.26
2016-11-10T07:05:14.635Z,4.24
2016-11-10T07:06:14.636Z,4.22
2016-11-10T07:07:14.697Z,4.3
2016-11-10T07:08:14.530Z,4.22
2016-11-10T07:09:14.821Z,4.29
2016-11-10T07:10:14.607Z,4.22
2016-11-10T07:11:14.608Z,4.22
2016-11-10T07:12:14.522Z,4.21
2016-11-10T07:13:14.734Z,4.32
2016-11-10T07:14:14.617Z,4.29
2016-11-10T07:15:14.730Z,4.39
2016-11-10T07:16:14.750Z,4.36
2016-11-10T07:17:14.647Z,4.38
2016-11-10T07:18:14.733Z,4.3
2016-11-10T07:19:14.707Z,4.35
2016-11-10T07:20:14.753Z,4.22
2016-11-10T07:21:14.814Z,4.32
2016-11-10T07:22:14.721Z,4.32
2016-11-10T07:23:14.652Z,4.29
2016-11-10T07:24:14.632Z,4.26
2016-11-10T07:25:14.889Z,4.26
2016-11-10T07:26:14.715Z,4.22
2016-11-10T07:27:14.656Z,4.28
2016-11-10T07:28:14.619Z,4.33
2016-11-10T07:29:14.679Z,4.29
2016-11-10T07:30:14.741Z,4.36
2016-11-10T07:31:14.741Z,4.3
2016-11-10T07:32:14.700Z,4.36
2016-11-10T07:33:14.753Z,4.39
2016-11-10T07:34:14.848Z,4.33
2016-11-10T07:35:14.618Z,4.46
2016-11-10T07:36:14.798Z,4.48
2016-11-10T07:37:14.760Z,4.42
2016-11-10T07:38:14.719Z,4.48
2016-11-10T07:39:14.621Z,4.35
2016-11-10T07:40:14.604Z,4.51
2016-11-10T07:41:15.013Z,4.44
2016-11-10T07:42:14.817Z,4.35
2016-11-10T07:43:14.704Z,4.46
2016-11-10T07:44:14.818Z,4.39
2016-11-10T07:45:14.665Z,4.42
2016-11-10T07:46:14.726Z,4.39
2016-11-10T07:47:14.793Z,4.42
2016-11-10T07:48:14.718Z,4.39
2016-11-10T07:49:14.857Z,4.42
2016-11-10T07:50:14.740Z,4.4
2016-11-10T07:51:14.781Z,4.36
2016-11-10T07:52:14.697Z,4.38
2016-11-10T07:53:14.761Z,4.46
2016-11-10T07:54:14.736Z,4.46
2016-11-10T07:55:14.833Z,4.42
2016-11-10T07:56:14.735Z,4.36
2016-11-10T07:57:14.945Z,4.36
2016-11-10T07:58:14.831Z,4.36
2016-11-10T07:59:14.814Z,4.4
2016-11-10T08:00:14.847Z,4.4
2016-11-10T08:01:14.756Z,4.36
2016-11-10T08:02:14.758Z,4.39
2016-11-10T08:03:14.918Z,4.35
2016-11-10T08:04:14.910Z,4.35
2016-11-10T08:05:14.720Z,4.35
2016-11-10T08:06:14.777Z,4.35
2016-11-10T08:07:14.708Z,4.35
2016-11-10T08:08:14.984Z,4.36
2016-11-10T08:09:14.865Z,4.39
2016-11-10T08:10:14.708Z,4.38
2016-11-10T08:11:14.834Z,4.38
2016-11-10T08:12:14.816Z,4.28
2016-11-10T08:13:15.014Z,4.38
2016-11-10T08:14:14.766Z,4.32
2016-11-10T08:15:14.859Z,4.32
2016-11-10T08:16:14.917Z,4.22
2016-11-10T08:17:14.788Z,4.26
2016-11-10T08:18:14.814Z,4.29
2016-11-10T08:19:14.873Z,4.32
2016-11-10T08:20:14.800Z,4.28
2016-11-10T08:21:14.874Z,4.18
2016-11-10T08:22:14.726Z,4.38
2016-11-10T08:23:14.816Z,4.35
2016-11-10T08:24:14.848Z,4.33
2016-11-10T08:25:14.813Z,4.44
2016-11-10T08:26:14.874Z,4.38
2016-11-10T08:27:14.863Z,4.33
2016-11-10T08:28:14.851Z,4.2
2016-11-10T08:29:15.181Z,4.32
2016-11-10T08:30:14.878Z,4.35
2016-11-10T08:31:14.783Z,4.36
2016-11-10T08:32:14.962Z,4.3
2016-11-10T08:33:14.788Z,4.4
2016-11-10T08:34:14.935Z,4.38
2016-11-10T08:35:14.836Z,4.35
2016-11-10T08:36:14.928Z,4.33
2016-11-10T08:37:14.877Z,4.4
2016-11-10T08:38:14.954Z,4.4
2016-11-10T08:39:14.891Z,4.39
2016-11-10T08:40:14.938Z,4.47
2016-11-10T08:41:14.960Z,4.39
2016-11-10T08:42:14.818Z,4.47
2016-11-10T08:43:14.898Z,4.51
2016-11-10T08:44:14.911Z,4.44
2016-11-10T08:45:15.125Z,4.36
2016-11-10T08:46:14.939Z,4.44
2016-11-10T08:47:15.018Z,4.42
2016-11-10T08:48:15.133Z,4.48
2016-11-10T08:50:14.819Z,4.39
2016-11-10T08:51:14.962Z,4.4
2016-11-10T08:52:15.151Z,4.39
2016-11-10T08:53:14.884Z,4.44
2016-11-10T08:54:15.140Z,4.4
2016-11-10T08:55:14.955Z,4.48
2016-11-10T08:56:15.041Z,4.39
2016-11-10T08:57:15.038Z,4.42
2016-11-10T08:58:14.987Z,4.39
2016-11-10T08:59:14.978Z,4.44
2016-11-10T09:00:14.935Z,4.51
2016-11-10T09:01:15.146Z,4.46
2016-11-10T09:02:14.896Z,4.53
2016-11-10T09:03:15.035Z,4.54
2016-11-10T09:04:15.274Z,4.44
2016-11-10T09:05:14.926Z,4.5
2016-11-10T09:06:15.095Z,4.64
2016-11-10T09:07:15.023Z,4.6
2016-11-10T09:08:15.063Z,4.46
2016-11-10T09:09:14.979Z,4.4
2016-11-10T09:10:15.139Z,4.36
2016-11-10T09:11:15.256Z,4.29
2016-11-10T09:12:15.180Z,4.44
2016-11-10T09:13:15.215Z,4.22
2016-11-10T09:14:15.041Z,4.26
2016-11-10T09:15:15.295Z,4.35
2016-11-10T09:16:15.098Z,4.26
2016-11-10T09:17:15.154Z,4.07
2016-11-10T09:18:18.275Z,4.29
2016-11-10T09:19:16.346Z,4.33
2016-11-10T09:20:15.018Z,4.29
2016-11-10T09:21:15.010Z,4.26
2016-11-10T09:22:15.095Z,4.26
2016-11-10T09:23:14.969Z,4.29
2016-11-10T09:24:15.193Z,4.29
2016-11-10T09:25:15.104Z,4.36
2016-11-10T09:26:15.069Z,4.32
2016-11-10T09:27:15.001Z,4.24
2016-11-10T09:28:15.118Z,4.28
2016-11-10T09:29:15.123Z,4.38
2016-11-10T09:30:15.096Z,4.38
2016-11-10T09:31:15.003Z,4.33
2016-11-10T09:32:15.093Z,4.17
2016-11-10T09:33:15.132Z,4.18
2016-11-10T09:34:14.924Z,4.22
2016-11-10T09:35:15.147Z,4.35
2016-11-10T09:36:15.061Z,4.26
2016-11-10T09:37:15.005Z,4.2
2016-11-10T09:38:15.143Z,4.26
2016-11-10T09:39:15.020Z,4.15
2016-11-10T09:40:14.987Z,4.2
2016-11-10T09:41:15.172Z,4.2
2016-11-10T09:42:15.080Z,4.18
2016-11-10T09:43:15.116Z,4.22
2016-11-10T09:44:15.192Z,4.15
2016-11-10T09:45:15.144Z,4.22
2016-11-10T09:46:15.054Z,4.15
2016-11-10T09:47:15.029Z,4.33
2016-11-10T09:48:15.133Z,4.35
2016-11-10T09:49:15.163Z,4.44
2016-11-10T09:50:15.044Z,4.46
2016-11-10T09:51:15.091Z,4.35
2016-11-10T09:52:15.051Z,4.33
2016-11-10T09:53:15.045Z,4.29
2016-11-10T09:54:15.095Z,4.32
2016-11-10T09:55:15.092Z,4.38
2016-11-10T09:56:15.074Z,4.42
2016-11-10T09:57:15.130Z,4.44
2016-11-10T09:58:15.117Z,4.48
2016-11-10T09:59:15.348Z,4.38
2016-11-10T10:00:15.141Z,4.44
2016-11-10T10:01:15.024Z,4.47
2016-11-10T10:02:15.164Z,4.39
2016-11-10T10:03:15.155Z,4.32
2016-11-10T10:04:15.144Z,4.4
2016-11-10T10:05:15.138Z,4.44
2016-11-10T10:06:15.240Z,4.36
2016-11-10T10:07:15.147Z,4.33
2016-11-10T10:08:15.381Z,4.26
2016-11-10T10:09:15.106Z,4.3
2016-11-10T10:10:15.152Z,4.26
2016-11-10T10:11:15.121Z,4.35
2016-11-10T10:12:15.234Z,4.33
2016-11-10T10:13:15.037Z,4.3
2016-11-10T10:14:15.177Z,4.4
2016-11-10T10:15:15.129Z,4.33
2016-11-10T10:16:15.463Z,4.24
2016-11-10T10:17:15.243Z,4.21
2016-11-10T10:18:15.171Z,4.26
2016-11-10T10:19:15.106Z,4.17
2016-11-10T10:20:15.992Z,4.29
2016-11-10T10:21:15.303Z,4.3
2016-11-10T10:22:15.393Z,4.32
2016-11-10T10:23:22.634Z,4.44
2016-11-10T10:24:15.103Z,4.42
2016-11-10T10:25:15.261Z,4.38
2016-11-10T10:26:15.144Z,4.42
2016-11-10T10:27:15.307Z,4.42
2016-11-10T10:28:15.251Z,4.44
2016-11-10T10:29:15.198Z,4.3
2016-11-10T10:30:15.304Z,4.39
2016-11-10T10:31:15.348Z,4.38
2016-11-10T10:32:15.275Z,4.44
2016-11-10T10:33:15.258Z,4.33
2016-11-10T10:34:15.266Z,4.38
2016-11-10T10:35:15.315Z,4.35
2016-11-10T10:36:15.396Z,4.35
2016-11-10T10:37:16.103Z,4.32
2016-11-10T10:38:15.483Z,4.17
2016-11-10T10:39:15.189Z,4.17
2016-11-10T10:40:15.231Z,4.15
2016-11-10T10:41:15.178Z,4.2
2016-11-10T10:42:15.264Z,4.2
2016-11-10T10:43:15.321Z,4.18
2016-11-10T10:44:15.153Z,4.22
2016-11-10T10:45:15.174Z,4.3
2016-11-10T10:46:15.366Z,4.28
2016-11-10T10:52:18.210Z,4.22
2016-11-10T10:53:15.541Z,4.28
2016-11-10T10:54:15.299Z,4.35
2016-11-10T10:55:15.155Z,4.3
2016-11-10T10:56:15.220Z,4.26
2016-11-10T10:57:15.871Z,4.26
2016-11-10T10:58:15.178Z,4.24
2016-11-10T10:59:15.490Z,4.15
2016-11-10T11:00:16.164Z,4.26
2016-11-10T11:01:15.302Z,4.18
2016-11-10T11:02:15.305Z,4.17
2016-11-10T11:03:15.406Z,4.24
2016-11-10T11:04:15.343Z,4.21
2016-11-10T11:05:15.390Z,4.2
2016-11-10T11:06:15.292Z,4.21
2016-11-10T11:07:15.353Z,4.15
2016-11-10T11:08:15.482Z,4.11
2016-11-10T11:09:15.417Z,4.11
2016-11-10T11:10:15.315Z,4.08
2016-11-10T11:11:15.259Z,4.04
2016-11-10T11:12:15.210Z,4.12
2016-11-10T11:13:15.250Z,4.2
2016-11-10T11:14:15.342Z,4.2
2016-11-10T11:15:15.402Z,4.21
2016-11-10T11:16:15.241Z,4.14
2016-11-10T11:17:15.340Z,4.14
2016-11-10T11:18:15.216Z,4.29
2016-11-10T11:19:15.498Z,4.24
2016-11-10T11:20:15.328Z,4.24
2016-11-10T11:21:15.460Z,4.26
2016-11-10T11:22:15.243Z,4.22
2016-11-10T11:23:15.319Z,4.2
2016-11-10T11:24:15.246Z,4.3
2016-11-10T11:25:15.374Z,4.24
2016-11-10T11:26:15.223Z,4.14
2016-11-10T11:27:15.310Z,4.17
2016-11-10T11:28:15.349Z,4.26
2016-11-10T11:29:15.392Z,4.3
2016-11-10T11:30:15.425Z,4.33
2016-11-10T11:31:15.611Z,4.29
2016-11-10T11:32:15.574Z,4.38
2016-11-10T11:33:15.265Z,4.39
2016-11-10T11:34:15.410Z,4.47
2016-11-10T11:35:15.439Z,4.39
2016-11-10T11:36:15.351Z,4.38
2016-11-10T11:37:15.382Z,4.33
2016-11-10T11:38:15.452Z,4.33
2016-11-10T11:39:15.368Z,4.35
2016-11-10T11:40:15.376Z,4.26
2016-11-10T11:41:15.430Z,4.36
2016-11-10T11:42:15.467Z,4.35
2016-11-10T11:43:15.355Z,4.32
2016-11-10T11:44:15.304Z,4.39
2016-11-10T11:45:15.502Z,4.39
2016-11-10T11:46:15.464Z,4.4
2016-11-10T11:47:15.493Z,4.36
2016-11-10T11:48:15.285Z,4.39
2016-11-10T11:49:15.421Z,4.46
2016-11-10T11:50:15.381Z,4.48
2016-11-10T11:51:15.479Z,4.42
2016-11-10T11:52:15.652Z,4.56
2016-11-10T11:53:15.392Z,4.61
2016-11-10T11:54:15.591Z,4.75
2016-11-10T11:55:15.507Z,4.76
2016-11-10T11:56:16.119Z,4.88
2016-11-10T11:57:15.558Z,4.94
2016-11-10T11:58:15.351Z,4.79
2016-11-10T11:59:15.382Z,4.87
2016-11-10T12:00:15.469Z,4.84
2016-11-10T12:01:15.442Z,4.97
2016-11-10T12:02:15.451Z,4.94
2016-11-10T12:03:15.996Z,4.92
2016-11-10T12:04:15.518Z,4.95
2016-11-10T12:05:16.162Z,4.97
2016-11-10T12:06:15.523Z,5.05
2016-11-10T12:07:16.004Z,4.97
2016-11-10T12:08:15.504Z,5.1
2016-11-10T12:09:15.560Z,5.16
2016-11-10T12:10:15.784Z,5.09
2016-11-10T12:11:15.643Z,5.16
2016-11-10T12:12:15.815Z,5.16
2016-11-10T12:13:15.414Z,5.02
2016-11-10T12:14:15.512Z,5.08
2016-11-10T12:15:16.041Z,4.9
2016-11-10T12:16:15.633Z,5
2016-11-10T12:17:15.580Z,5.02
2016-11-10T12:18:15.656Z,5.12
2016-11-10T12:19:15.900Z,5.03
2016-11-10T12:20:20.007Z,5.03
2016-11-10T12:21:15.994Z,5
2016-11-10T12:22:15.579Z,4.9
2016-11-10T12:23:15.457Z,4.88
2016-11-10T12:24:18.040Z,4.97
2016-11-10T12:25:17.032Z,5.02
2016-11-10T12:26:16.040Z,5.08
2016-11-10T12:27:16.519Z,5.13
2016-11-10T12:28:28.970Z,5.08
2016-11-10T12:29:15.432Z,5.13
2016-11-10T12:30:15.610Z,5.15
2016-11-10T12:31:15.634Z,5.18
2016-11-10T12:32:15.520Z,5.18
2016-11-10T12:33:15.605Z,5.15
2016-11-10T12:34:15.538Z,5.15
2016-11-10T12:35:15.662Z,5.15
2016-11-10T12:36:15.558Z,5.18
2016-11-10T12:37:15.596Z,5.21
2016-11-10T12:38:16.799Z,5.26
2016-11-10T12:39:15.537Z,5.21
2016-11-10T12:40:15.782Z,5.24
2016-11-10T12:41:15.591Z,5.3
2016-11-10T12:42:15.526Z,5.31
2016-11-10T12:43:15.667Z,5.3
2016-11-10T12:44:17.132Z,5.21
2016-11-10T12:45:15.549Z,5.33
2016-11-10T12:46:15.719Z,5.24
2016-11-10T12:47:15.446Z,5.33
2016-11-10T12:48:15.708Z,5.26
2016-11-10T12:49:15.698Z,5.28
2016-11-10T12:50:15.632Z,5.36
2016-11-10T12:51:15.510Z,5.42
2016-11-10T12:52:15.520Z,5.44
2016-11-10T12:53:15.630Z,5.39
2016-11-10T12:54:15.653Z,5.34
2016-11-10T12:55:15.684Z,5.37
2016-11-10T12:56:15.581Z,5.37
2016-11-10T12:57:15.504Z,5.3
2016-11-10T12:58:15.505Z,5.31
2016-11-10T12:59:15.562Z,5.33
2016-11-10T13:00:15.767Z,5.31
2016-11-10T13:01:15.754Z,5.36
2016-11-10T13:02:17.862Z,5.36
2016-11-10T13:03:16.014Z,5.44
2016-11-10T13:04:16.710Z,5.3
2016-11-10T13:05:16.929Z,5.39
2016-11-10T13:06:16.649Z,5.42
2016-11-10T13:07:15.554Z,5.39
2016-11-10T13:08:15.609Z,5.31
2016-11-10T13:09:15.727Z,5.33
2016-11-10T13:10:16.565Z,5.31
2016-11-10T13:11:15.643Z,5.33
2016-11-10T13:12:15.698Z,5.36
2016-11-10T13:13:15.572Z,5.31
2016-11-10T13:14:15.709Z,5.39
2016-11-10T13:15:15.721Z,5.16
2016-11-10T13:16:15.853Z,5.24
2016-11-10T13:17:15.643Z,5.44
2016-11-10T13:18:15.650Z,5.41
2016-11-10T13:19:15.631Z,5.34
2016-11-10T13:20:15.656Z,5.42
2016-11-10T13:21:15.605Z,5.39
2016-11-10T13:22:15.630Z,5.31
2016-11-10T13:23:15.545Z,5.34
2016-11-10T13:24:15.685Z,5.36
2016-11-10T13:25:15.578Z,5.27
2016-11-10T13:26:15.680Z,5.34
2016-11-10T13:27:15.558Z,5.34
2016-11-10T13:28:15.710Z,5.33
2016-11-10T13:29:15.648Z,5.33